DW8453 Bekkjarvik NO current weather conditions

sailwx.info

Wind from 137 at 4 knots gusting 4

Air temperature 15.6° C
Dewpoint 12.7° C

Last reported at 2015-Jul-04 19:48 UTC.
Time now 2015-Jul-06 00:58 UTC

Location: N 60°01' E 005°12'.
View on Google Maps.

See reports from other nearby stations

  
Tides and Currents Weather Stations Pressure Air Temp Water Temp Dewpoint Dewpoint Depression Visibility Wind Speed Wind Dir Waves Ship Positions
date/time (UTC)wind fromknots sea level pressurealtimeterstation pressurevisibilityair tempwater tempwave heightnotes
2015-Jul-04 19:48 137 4 gusting 4 15.6
2015-Jul-04 19:43 115 4 gusting 2 16.1
2015-Jul-04 19:38 127 2 gusting 2 16.1
2015-Jul-04 19:33 142 1 gusting 2 16.1
2015-Jul-04 19:28 084 4 gusting 4 16.1
2015-Jul-04 19:23 078 4 gusting 5 16.1
2015-Jul-04 19:18 131 2 gusting 1 16.1
2015-Jul-04 19:13 150 0 gusting 1 16.1
2015-Jul-04 19:08 184 2 gusting 2 16.1
2015-Jul-04 19:03 113 4 gusting 4 16.7
2015-Jul-04 18:58 356 0 gusting 4 16.7
2015-Jul-04 18:53 288 0 gusting 2 16.7
2015-Jul-04 18:48 295 1 gusting 4 16.7
2015-Jul-04 18:43 269 4 gusting 5 16.7
2015-Jul-04 18:38 262 2 gusting 4 17.2
2015-Jul-04 18:33 266 6 gusting 10 17.8
2015-Jul-04 18:28 215 7 gusting 8 17.8
2015-Jul-04 18:23 210 2 gusting 4 18.3
2015-Jul-04 18:18 180 1 gusting 1 17.8
2015-Jul-04 18:13 135 17.8
2015-Jul-04 18:08 028 0 gusting 1 17.8
2015-Jul-04 18:03 355 3 gusting 5 17.8
2015-Jul-04 17:58 041 8 gusting 7 17.8
2015-Jul-04 17:53 027 5 gusting 6 17.8
2015-Jul-04 17:48 358 1 gusting 6 17.8
2015-Jul-04 17:43 344 5 gusting 5 18.3
2015-Jul-04 17:38 329 1 gusting 4 18.3
2015-Jul-04 17:33 290 0 gusting 2 18.3
2015-Jul-04 17:28 330 3 gusting 5 18.9
2015-Jul-04 17:23 227 5 gusting 5 18.9
2015-Jul-04 17:18 246 4 gusting 5 18.9
2015-Jul-04 17:13 270 10 gusting 6 18.9
2015-Jul-04 17:08 243 6 gusting 5 18.9
2015-Jul-04 17:03 263 4 gusting 4 18.9
2015-Jul-04 16:58 232 6 gusting 6 18.9
2015-Jul-04 16:53 280 1 gusting 1 18.9
2015-Jul-04 16:48 300 3 gusting 2 19.4
2015-Jul-04 16:43 139 0 gusting 1 19.4
2015-Jul-04 16:38 347 3 gusting 4 19.4
2015-Jul-04 16:33 236 6 gusting 6 19.4
2015-Jul-04 16:28 267 6 gusting 6 19.4
2015-Jul-04 16:23 248 5 gusting 6 20.0
2015-Jul-04 16:18 260 12 gusting 8 20.0
2015-Jul-04 16:13 251 10 gusting 8 20.0
2015-Jul-04 16:08 263 6 gusting 6 19.4
2015-Jul-04 16:03 303 1 gusting 1 18.9
2015-Jul-04 15:58 333 4 gusting 4 19.4
2015-Jul-04 15:53 013 6 gusting 6 19.4
2015-Jul-04 15:48 359 0 gusting 2 19.4
2015-Jul-04 15:43 044 2 gusting 2 18.9
2015-Jul-04 15:38 337 2 gusting 2 18.9
2015-Jul-04 15:33 333 5 gusting 4 18.9
2015-Jul-04 15:28 316 11 gusting 11 18.9
2015-Jul-04 15:23 344 6 gusting 6 18.9
2015-Jul-04 15:18 352 7 gusting 7 18.9
2015-Jul-04 15:13 326 5 gusting 5 18.9
2015-Jul-04 15:08 313 4 gusting 5 19.4
2015-Jul-04 15:03 355 4 gusting 4 19.4
2015-Jul-04 14:58 003 3 gusting 2 19.4
2015-Jul-04 14:53 301 3 gusting 2 18.9
2015-Jul-04 14:48 292 4 gusting 5 18.9
2015-Jul-04 14:43 303 5 gusting 6 18.3
2015-Jul-04 14:38 334 9 gusting 6 18.3
2015-Jul-04 14:33 353 7 gusting 6 18.3
2015-Jul-04 14:28 003 6 gusting 6 18.3
2015-Jul-04 14:23 354 4 gusting 6 18.3
2015-Jul-04 14:18 331 5 gusting 5 18.3
2015-Jul-04 14:13 335 7 gusting 6 18.3
2015-Jul-04 14:08 308 6 gusting 6 18.9
2015-Jul-04 14:03 324 6 gusting 6 18.9
2015-Jul-04 13:58 310 6 gusting 6 18.3
2015-Jul-04 13:53 317 9 gusting 6 18.3
2015-Jul-04 13:48 291 6 gusting 6 18.3
2015-Jul-04 13:43 324 5 gusting 6 17.8
2015-Jul-04 13:38 334 6 gusting 6 18.3
2015-Jul-04 13:33 311 6 gusting 6 18.3
2015-Jul-04 13:28 338 7 gusting 8 18.3
2015-Jul-04 13:23 315 3 gusting 5 17.8
2015-Jul-04 13:18 313 7 gusting 6 17.8
2015-Jul-04 13:13 343 4 gusting 6 18.3
2015-Jul-04 13:08 300 7 gusting 6 17.8
2015-Jul-04 13:03 327 6 gusting 5 17.8
2015-Jul-04 12:58 312 7 gusting 5 17.8
2015-Jul-04 12:53 322 7 gusting 6 17.8
2015-Jul-04 12:48 325 6 gusting 5 17.8
2015-Jul-04 12:43 308 6 gusting 6 17.2
2015-Jul-04 12:38 297 6 gusting 6 17.2
2015-Jul-04 12:33 303 8 gusting 7 17.2
2015-Jul-04 12:28 317 7 gusting 6 17.2
2015-Jul-04 12:23 300 4 gusting 6 16.7
2015-Jul-04 12:18 333 6 gusting 6 16.7
2015-Jul-04 12:13 325 8 gusting 6 16.7
2015-Jul-04 12:08 291 6 gusting 6 16.7
2015-Jul-04 12:03 302 9 gusting 6 16.7
2015-Jul-04 11:58 308 7 gusting 6 17.2
2015-Jul-04 11:53 287 7 gusting 6 17.2
2015-Jul-04 11:48 286 8 gusting 7 17.2
2015-Jul-04 11:43 306 9 gusting 6 17.2
2015-Jul-04 11:38 294 5 gusting 5 17.2
2015-Jul-04 11:33 305 8 gusting 6 16.7
2015-Jul-04 11:28 294 4 gusting 5 16.7
2015-Jul-04 11:23 286 7 gusting 6 16.7
2015-Jul-04 11:18 337 11 gusting 7 16.7
2015-Jul-04 11:13 352 8 gusting 7 16.7
2015-Jul-04 11:08 322 7 gusting 6 16.7
2015-Jul-04 11:03 262 8 gusting 6 16.7
2015-Jul-04 10:58 324 4 gusting 5 17.2
2015-Jul-04 10:53 299 7 gusting 7 16.7
2015-Jul-04 10:48 315 6 gusting 6 16.7
2015-Jul-04 10:43 315 6 gusting 6 17.2
2015-Jul-04 10:38 315 5 gusting 6 17.2
2015-Jul-04 10:33 288 6 gusting 6 17.2
2015-Jul-04 10:28 325 5 gusting 6 17.2
2015-Jul-04 10:23 286 7 gusting 6 17.2
2015-Jul-04 10:18 308 8 gusting 5 16.7
2015-Jul-04 10:13 297 4 gusting 7 16.7
2015-Jul-04 10:08 351 10 gusting 8 16.7
2015-Jul-04 10:03 011 12 gusting 8 16.7
2015-Jul-04 09:58 012 11 gusting 7 16.7
2015-Jul-04 09:53 354 8 gusting 6 17.2
2015-Jul-04 09:48 336 10 gusting 7 17.2
2015-Jul-04 09:43 331 5 gusting 6 17.8
2015-Jul-04 09:38 356 6 gusting 6 17.8
2015-Jul-04 09:33 315 7 gusting 6 17.8
2015-Jul-04 09:28 319 7 gusting 6 17.8
2015-Jul-04 09:23 341 6 gusting 6 17.8
2015-Jul-04 09:18 338 5 gusting 6 18.3
2015-Jul-04 09:13 294 6 gusting 5 17.8
2015-Jul-04 09:08 282 6 gusting 7 17.8
2015-Jul-04 09:03 338 8 gusting 6 17.8
2015-Jul-04 08:58 307 4 gusting 6 17.8
2015-Jul-04 08:53 298 6 gusting 6 17.8
2015-Jul-04 08:48 001 5 gusting 6 17.8
2015-Jul-04 08:43 314 10 gusting 8 17.2
2015-Jul-04 08:38 332 7 gusting 6 17.8
2015-Jul-04 08:33 337 7 gusting 6 17.8
2015-Jul-04 08:28 335 6 gusting 6 17.8
2015-Jul-04 08:23 338 5 gusting 6 17.8
2015-Jul-04 08:18 296 5 gusting 7 17.8
2015-Jul-04 08:13 357 6 gusting 7 18.3
2015-Jul-04 08:08 341 5 gusting 6 18.3
2015-Jul-04 08:03 318 4 gusting 2 18.3
2015-Jul-04 07:58 325 6 gusting 5 18.3
2015-Jul-04 07:53 316 4 gusting 6 18.9
2015-Jul-04 07:48 356 8 gusting 7 19.4
2015-Jul-04 07:43 332 4 gusting 4 21.1
2015-Jul-04 07:38 259 1 gusting 2 21.7
2015-Jul-04 07:33 115 5 gusting 4 21.7
2015-Jul-04 07:28 135 5 gusting 4 20.6
2015-Jul-04 07:23 194 2 gusting 2 20.0
2015-Jul-04 07:18 107 0 gusting 1 20.0
2015-Jul-04 07:13 139 4 gusting 4 20.0
2015-Jul-04 07:08 112 2 gusting 2 19.4
2015-Jul-04 07:03 132 5 gusting 4 18.9
2015-Jul-04 06:58 142 3 gusting 5 18.3
2015-Jul-04 06:53 171 5 gusting 4 17.8
2015-Jul-04 06:48 149 5 gusting 2 16.7
2015-Jul-04 06:43 173 1 gusting 1 16.1
2015-Jul-04 06:38 315 0 gusting 0 16.1
2015-Jul-04 06:33 301 16.1
2015-Jul-04 06:28 018 2 gusting 1 15.6
2015-Jul-04 06:23 343 2 gusting 2 15.6
2015-Jul-04 06:18 15.6
2015-Jul-04 06:13 319 1 gusting 1 15.0
2015-Jul-04 06:08 051 1 gusting 4 15.0
2015-Jul-04 06:03 053 3 gusting 2 15.0
2015-Jul-04 05:58 017 2 gusting 2 15.0
2015-Jul-04 05:53 079 4 gusting 5 15.0
2015-Jul-04 05:48 022 7 gusting 5 14.4
2015-Jul-04 05:43 353 2 gusting 2 14.4
2015-Jul-04 05:38 021 4 gusting 7 14.4
2015-Jul-04 05:33 344 6 gusting 6 14.4
2015-Jul-04 05:28 316 1 gusting 2 14.4
2015-Jul-04 05:23 005 6 gusting 6 14.4
2015-Jul-04 05:18 340 5 gusting 6 14.4
2015-Jul-04 05:13 355 6 gusting 6 14.4
2015-Jul-04 05:08 329 9 gusting 6 14.4
2015-Jul-04 05:03 355 6 gusting 7 14.4
2015-Jul-04 04:58 015 7 gusting 6 14.4
2015-Jul-04 04:53 336 8 gusting 6 14.4
2015-Jul-04 04:48 343 5 gusting 8 14.4
2015-Jul-04 04:43 14.4
2015-Jul-04 04:38 337 4 gusting 7 14.4
2015-Jul-04 04:33 14.4
2015-Jul-04 04:28 339 7 gusting 6 14.4
2015-Jul-04 04:23 348 7 gusting 11 14.4
2015-Jul-04 04:18 340 5 gusting 6 14.4
2015-Jul-04 04:13 344 9 gusting 8 14.4
2015-Jul-04 04:08 017 8 gusting 8 14.4
2015-Jul-04 04:03 14.4
2015-Jul-04 03:58 033 3 gusting 4 14.4
2015-Jul-04 03:53 053 5 gusting 4 14.4
2015-Jul-04 03:48 357 12 gusting 8 14.4
2015-Jul-04 03:43 054 2 gusting 6 14.4
2015-Jul-04 03:38 024 4 gusting 5 14.4
2015-Jul-04 03:33 354 7 gusting 7 13.9
2015-Jul-04 03:28 020 10 gusting 12 13.9
2015-Jul-04 03:23 347 5 gusting 6 13.9
2015-Jul-04 03:18 001 6 gusting 6 13.9
2015-Jul-04 03:13 320 8 gusting 6 13.9
2015-Jul-04 03:08 351 6 gusting 6 13.9
2015-Jul-04 03:03 342 7 gusting 6 13.9
2015-Jul-04 02:58 334 5 gusting 5 13.9
2015-Jul-04 02:53 325 3 gusting 2 13.9
2015-Jul-04 02:48 332 5 gusting 6 13.9
2015-Jul-04 02:43 342 6 gusting 6 13.9
2015-Jul-04 02:38 349 2 gusting 4 13.9
2015-Jul-04 02:33 357 6 gusting 6 13.9
2015-Jul-04 02:28 313 5 gusting 6 13.9
2015-Jul-04 02:23 329 6 gusting 5 13.9
2015-Jul-04 02:18 357 2 gusting 2 13.9
2015-Jul-04 02:13 321 1 gusting 2 13.9
2015-Jul-04 02:08 350 2 gusting 4 13.9
2015-Jul-04 02:03 348 3 gusting 6 13.9
2015-Jul-04 01:58 355 6 gusting 7 13.9
2015-Jul-04 01:53 345 5 gusting 5 13.9
2015-Jul-04 01:48 346 7 gusting 6 13.9
2015-Jul-04 01:43 332 7 gusting 6 13.9
2015-Jul-04 01:38 004 5 gusting 6 13.9
2015-Jul-04 01:33 13.9
2015-Jul-04 01:28 354 5 gusting 6 13.9
2015-Jul-04 01:23 343 4 gusting 5 13.9
2015-Jul-04 01:18 346 6 gusting 6 13.9
2015-Jul-04 01:13 354 7 gusting 6 13.9
2015-Jul-04 01:08 338 4 gusting 6 13.9
2015-Jul-04 01:03 344 5 gusting 5 13.9
2015-Jul-04 00:58 13.9
2015-Jul-04 00:53 338 4 gusting 5 13.9
2015-Jul-04 00:48 350 7 gusting 5 13.9
2015-Jul-04 00:43 341 6 gusting 5 13.9
2015-Jul-04 00:38 335 2 gusting 2 13.9
2015-Jul-04 00:33 318 2 gusting 2 13.9
2015-Jul-04 00:28 290 1 gusting 1 13.9
2015-Jul-04 00:23 313 2 gusting 2 13.9
2015-Jul-04 00:18 341 1 gusting 2 13.9
2015-Jul-04 00:13 344 1 gusting 2 13.9
2015-Jul-04 00:08 310 2 gusting 2 13.9
2015-Jul-04 00:03 330 1 gusting 1 13.9